createdAt,value
2022-09-15T00:00:21.003Z,1.33
2022-09-15T00:02:48.638Z,1.20
2022-09-15T00:05:16.353Z,1.20
2022-09-15T00:07:44.125Z,1.20
2022-09-15T00:10:13.575Z,1.40
2022-09-15T00:12:41.485Z,1.50
2022-09-15T00:15:10.066Z,1.30
2022-09-15T00:17:37.633Z,1.10
2022-09-15T00:20:07.421Z,1.10
2022-09-15T00:22:35.148Z,1.33
2022-09-15T00:25:02.735Z,1.23
2022-09-15T00:27:33.050Z,1.77
2022-09-15T00:30:01.059Z,1.35
2022-09-15T00:32:30.433Z,0.90
2022-09-15T00:34:58.195Z,1.08
2022-09-15T00:37:26.937Z,1.30
2022-09-15T00:39:54.637Z,1.30
2022-09-15T00:42:23.849Z,1.50
2022-09-15T00:44:58.749Z,1.30
2022-09-15T00:47:29.636Z,1.67
2022-09-15T00:50:09.286Z,1.42
2022-09-15T00:52:40.372Z,1.60
2022-09-15T00:55:13.209Z,1.10
2022-09-15T00:57:45.647Z,1.13
2022-09-15T01:00:18.702Z,1.45
2022-09-15T01:02:48.227Z,1.20
2022-09-15T01:05:18.847Z,1.23
2022-09-15T01:07:49.997Z,1.10
2022-09-15T01:10:23.688Z,1.27
2022-09-15T01:12:51.657Z,1.67
2022-09-15T01:15:23.076Z,1.27
2022-09-15T01:18:05.737Z,1.30
2022-09-15T01:21:05.718Z,1.42
2022-09-15T01:23:59.487Z,1.30
2022-09-15T01:27:24.146Z,1.40
2022-09-15T01:30:03.359Z,1.45
2022-09-15T01:32:58.843Z,1.20
2022-09-15T01:35:34.332Z,1.25
2022-09-15T01:38:07.666Z,1.10
2022-09-15T01:40:41.797Z,1.10
2022-09-15T01:43:11.375Z,1.38
2022-09-15T01:45:45.269Z,1.10
2022-09-15T01:48:13.239Z,1.50
2022-09-15T01:50:45.595Z,1.50
2022-09-15T01:53:17.809Z,1.10
2022-09-15T01:55:49.989Z,1.40
2022-09-15T01:58:17.577Z,1.30
2022-09-15T02:00:50.594Z,0.98
2022-09-15T02:03:25.182Z,1.50
2022-09-15T02:08:38.360Z,1.40
2022-09-15T02:11:15.465Z,1.20
2022-09-15T02:13:48.766Z,1.50
2022-09-15T02:16:21.561Z,1.30
2022-09-15T02:19:03.547Z,1.17
2022-09-15T02:21:37.495Z,1.33
2022-09-15T02:24:12.807Z,1.25
2022-09-15T02:26:43.089Z,1.30
2022-09-15T02:29:14.129Z,1.25
2022-09-15T02:31:45.565Z,1.10
2022-09-15T02:34:17.538Z,1.10
2022-09-15T02:36:46.681Z,1.15
2022-09-15T02:39:19.383Z,1.17
2022-09-15T02:41:47.265Z,1.25
2022-09-15T02:44:15.047Z,1.35
2022-09-15T02:46:44.081Z,1.30
2022-09-15T02:49:11.856Z,1.63
2022-09-15T02:51:39.455Z,1.23
2022-09-15T02:54:08.066Z,1.45
2022-09-15T02:56:35.799Z,1.20
2022-09-15T02:59:03.422Z,1.65
2022-09-15T03:01:34.429Z,1.38
2022-09-15T03:04:04.512Z,1.45
2022-09-15T03:06:35.438Z,1.30
2022-09-15T03:09:05.829Z,1.25
2022-09-15T03:11:34.276Z,1.10
2022-09-15T03:14:04.665Z,1.25
2022-09-15T03:16:34.303Z,1.35
2022-09-15T03:19:04.413Z,1.17
2022-09-15T03:21:32.023Z,1.75
2022-09-15T03:24:00.502Z,1.30
2022-09-15T03:26:28.277Z,1.30
2022-09-15T03:28:55.935Z,1.23
2022-09-15T03:31:23.581Z,1.45
2022-09-15T03:33:54.682Z,1.02
2022-09-15T03:36:23.595Z,1.17
2022-09-15T03:38:51.546Z,1.30
2022-09-15T03:41:19.938Z,1.20
2022-09-15T03:43:47.524Z,1.45
2022-09-15T03:46:15.405Z,1.40
2022-09-15T03:48:43.014Z,1.42
2022-09-15T03:51:11.563Z,1.75
2022-09-15T03:53:41.960Z,1.00
2022-09-15T03:56:12.481Z,1.27
2022-09-15T03:58:40.201Z,1.20
2022-09-15T04:01:08.006Z,1.20
2022-09-15T04:03:40.749Z,1.33
2022-09-15T04:06:12.338Z,1.20
2022-09-15T04:08:41.631Z,1.35
2022-09-15T04:11:11.499Z,1.20
2022-09-15T04:13:40.523Z,1.05
2022-09-15T04:16:11.683Z,1.13
2022-09-15T04:18:39.719Z,1.00
2022-09-15T04:21:09.960Z,1.05
2022-09-15T04:23:37.555Z,1.08
2022-09-15T04:26:08.302Z,1.35
2022-09-15T04:28:39.509Z,1.05
2022-09-15T04:31:09.556Z,1.20
2022-09-15T04:33:38.574Z,1.10
2022-09-15T04:36:08.750Z,0.80
2022-09-15T04:38:36.631Z,1.00
2022-09-15T04:41:06.854Z,1.10
2022-09-15T04:43:35.437Z,0.90
2022-09-15T04:46:03.023Z,1.13
2022-09-15T04:48:31.662Z,0.90
2022-09-15T04:51:02.665Z,0.90
2022-09-15T04:53:30.902Z,0.80
2022-09-15T04:56:08.025Z,0.82
2022-09-15T04:58:39.889Z,0.70
2022-09-15T05:01:13.187Z,1.00
2022-09-15T05:03:41.728Z,0.90
2022-09-15T05:06:15.897Z,1.05
2022-09-15T05:08:43.908Z,0.82
2022-09-15T05:11:13.599Z,0.90
2022-09-15T05:13:41.909Z,0.93
2022-09-15T05:16:12.041Z,1.00
2022-09-15T05:18:40.514Z,0.90
2022-09-15T05:21:09.594Z,0.77
2022-09-15T05:23:38.363Z,0.90
2022-09-15T05:26:08.039Z,1.10
2022-09-15T05:28:38.219Z,0.82
2022-09-15T05:31:09.968Z,0.70
2022-09-15T05:33:38.377Z,0.93
2022-09-15T05:36:07.178Z,0.73
2022-09-15T05:38:35.153Z,0.93
2022-09-15T05:41:04.168Z,1.08
2022-09-15T05:43:32.750Z,0.85
2022-09-15T05:46:02.510Z,1.00
2022-09-15T05:48:30.514Z,1.00
2022-09-15T05:50:58.875Z,0.85
2022-09-15T05:53:27.575Z,0.90
2022-09-15T05:55:57.055Z,0.80
2022-09-15T05:58:25.277Z,0.90
2022-09-15T06:00:54.244Z,0.80
2022-09-15T06:03:28.624Z,0.80
2022-09-15T06:05:59.960Z,0.93
2022-09-15T06:08:31.834Z,1.00
2022-09-15T06:11:04.421Z,1.17
2022-09-15T06:13:32.006Z,0.90
2022-09-15T06:16:04.017Z,0.90
2022-09-15T06:18:33.835Z,1.10
2022-09-15T06:21:05.308Z,1.02
2022-09-15T06:23:33.347Z,1.02
2022-09-15T06:26:09.601Z,0.88
2022-09-15T06:28:37.659Z,1.38
2022-09-15T06:31:12.064Z,1.20
2022-09-15T06:33:44.813Z,0.90
2022-09-15T06:36:13.205Z,1.00
2022-09-15T06:38:41.193Z,0.90
2022-09-15T06:41:09.440Z,0.77
2022-09-15T06:43:37.593Z,1.00
2022-09-15T06:46:06.201Z,0.70
2022-09-15T06:48:33.868Z,1.00
2022-09-15T06:51:04.291Z,0.70
2022-09-15T06:53:32.476Z,1.00
2022-09-15T06:56:03.597Z,0.90
2022-09-15T06:58:36.266Z,0.73
2022-09-15T07:01:05.547Z,1.00
2022-09-15T07:03:33.279Z,0.90
2022-09-15T07:06:03.188Z,1.13
2022-09-15T07:08:30.965Z,1.05
2022-09-15T07:10:58.683Z,1.02
2022-09-15T07:13:26.744Z,0.82
2022-09-15T07:15:55.847Z,0.80
2022-09-15T07:18:24.409Z,1.00
2022-09-15T07:20:59.968Z,1.08
2022-09-15T07:23:29.326Z,1.05
2022-09-15T07:26:06.576Z,1.00
2022-09-15T07:28:35.922Z,1.08
2022-09-15T07:31:04.290Z,1.20
2022-09-15T07:33:31.923Z,1.00
2022-09-15T07:35:59.571Z,0.95
2022-09-15T07:38:27.126Z,1.25
2022-09-15T07:40:56.298Z,1.10
2022-09-15T07:43:26.653Z,1.15
2022-09-15T07:45:57.889Z,1.33
2022-09-15T07:48:26.549Z,1.10
2022-09-15T07:50:54.502Z,1.30
2022-09-15T07:53:22.821Z,1.13
2022-09-15T07:55:53.325Z,1.27
2022-09-15T07:58:22.906Z,1.20
2022-09-15T08:00:51.023Z,1.20
2022-09-15T08:03:19.040Z,1.05
2022-09-15T08:05:46.793Z,1.08
2022-09-15T08:08:14.472Z,1.65
2022-09-15T08:10:42.862Z,1.13
2022-09-15T08:13:10.429Z,1.08
2022-09-15T08:15:39.458Z,1.38
2022-09-15T08:18:07.617Z,1.00
2022-09-15T08:20:35.285Z,1.20
2022-09-15T08:23:03.151Z,1.00
2022-09-15T08:25:31.676Z,1.00
2022-09-15T08:27:59.969Z,0.85
2022-09-15T08:30:28.147Z,1.20
2022-09-15T08:32:57.202Z,1.08
2022-09-15T08:35:24.764Z,1.00
2022-09-15T08:37:54.666Z,1.15
2022-09-15T08:40:33.558Z,1.20
2022-09-15T08:43:05.821Z,0.95
2022-09-15T08:45:43.058Z,1.08
2022-09-15T08:48:16.674Z,0.90
2022-09-15T08:50:47.210Z,0.93
2022-09-15T08:53:18.131Z,1.10
2022-09-15T08:55:50.880Z,1.10
2022-09-15T08:58:20.387Z,1.10
2022-09-15T09:00:51.746Z,1.00
2022-09-15T09:03:54.156Z,0.88
2022-09-15T09:06:31.031Z,1.10
2022-09-15T09:09:09.661Z,1.05
2022-09-15T09:12:17.584Z,1.30
2022-09-15T09:15:04.277Z,0.95
2022-09-15T09:17:52.249Z,1.02
2022-09-15T09:20:33.415Z,1.17
2022-09-15T09:23:03.164Z,1.20
2022-09-15T09:25:49.795Z,1.17
2022-09-15T09:28:32.997Z,1.08
2022-09-15T09:31:08.123Z,1.20
2022-09-15T09:33:47.351Z,1.38
2022-09-15T09:36:15.884Z,1.10
2022-09-15T09:38:46.332Z,1.15
2022-09-15T09:41:17.878Z,1.38
2022-09-15T09:43:48.466Z,1.00
2022-09-15T09:46:18.518Z,0.90
2022-09-15T09:48:49.209Z,1.10
2022-09-15T09:51:39.178Z,1.00
2022-09-15T09:54:12.601Z,1.08
2022-09-15T09:56:41.671Z,1.10
2022-09-15T09:59:33.249Z,0.90
2022-09-15T10:02:15.854Z,1.10
2022-09-15T10:04:45.059Z,1.02
2022-09-15T10:07:14.129Z,1.05
2022-09-15T10:09:50.950Z,1.13
2022-09-15T10:12:24.710Z,1.10
2022-09-15T10:24:32.411Z,1.23
2022-09-15T10:27:18.792Z,0.90
2022-09-15T10:29:48.142Z,1.20
2022-09-15T10:32:25.976Z,1.10
2022-09-15T10:35:01.939Z,1.08
2022-09-15T10:37:36.425Z,1.10
2022-09-15T10:40:22.017Z,1.15
2022-09-15T10:42:54.387Z,0.80
2022-09-15T10:45:33.668Z,0.93
2022-09-15T10:48:25.413Z,0.70
2022-09-15T10:50:59.337Z,0.95
2022-09-15T10:53:52.764Z,1.05
2022-09-15T10:56:29.134Z,0.90
2022-09-15T10:59:10.410Z,0.73
2022-09-15T11:02:02.651Z,0.98
2022-09-15T11:04:44.342Z,1.00
2022-09-15T11:07:20.100Z,0.80
2022-09-15T11:09:55.437Z,1.08
2022-09-15T11:12:34.545Z,1.15
2022-09-15T11:15:29.399Z,0.80
2022-09-15T11:18:13.349Z,1.10
2022-09-15T11:21:05.398Z,1.10
2022-09-15T11:23:38.429Z,1.17
2022-09-15T11:26:09.887Z,0.88
2022-09-15T11:28:42.707Z,0.93
2022-09-15T11:31:17.984Z,1.00
2022-09-15T11:33:53.328Z,1.17
2022-09-15T11:36:24.717Z,1.00
2022-09-15T11:38:57.639Z,0.90
2022-09-15T11:41:32.032Z,0.95
2022-09-15T11:44:19.880Z,1.02
2022-09-15T11:47:04.151Z,0.95
2022-09-15T11:49:39.732Z,0.70
2022-09-15T11:52:18.845Z,0.90
2022-09-15T11:54:51.530Z,1.00
2022-09-15T11:57:26.510Z,0.95
2022-09-15T12:00:03.370Z,1.27
2022-09-15T12:02:39.776Z,1.02
2022-09-15T12:05:15.502Z,1.15
2022-09-15T12:07:54.021Z,0.98
2022-09-15T12:10:25.546Z,1.10
2022-09-15T12:12:55.227Z,1.45
2022-09-15T12:15:27.513Z,1.02
2022-09-15T12:18:06.653Z,1.20
2022-09-15T12:20:53.570Z,1.00
2022-09-15T12:23:26.138Z,1.00
2022-09-15T12:26:09.110Z,1.10
2022-09-15T12:28:42.381Z,1.10
2022-09-15T12:31:24.951Z,0.90
2022-09-15T12:33:57.843Z,0.80
2022-09-15T12:36:42.533Z,0.70
2022-09-15T12:39:38.481Z,1.10
2022-09-15T12:42:20.389Z,0.70
2022-09-15T12:44:53.349Z,0.80
2022-09-15T12:47:36.766Z,0.90
2022-09-15T12:50:21.266Z,0.65
2022-09-15T12:52:53.546Z,0.80
2022-09-15T12:55:24.105Z,0.93
2022-09-15T12:57:55.647Z,0.77
2022-09-15T13:00:35.998Z,0.73
2022-09-15T13:03:06.584Z,0.90
2022-09-15T13:05:55.061Z,0.80
2022-09-15T13:08:47.600Z,0.73
2022-09-15T13:11:18.619Z,0.60
2022-09-15T13:13:50.233Z,1.20
2022-09-15T13:16:22.980Z,0.90
2022-09-15T13:19:05.891Z,0.82
2022-09-15T13:21:36.270Z,0.52
2022-09-15T13:24:07.801Z,0.75
2022-09-15T13:26:37.529Z,0.90
2022-09-15T13:29:07.356Z,0.55
2022-09-15T13:31:45.053Z,0.70
2022-09-15T13:35:08.839Z,0.68
2022-09-15T13:38:22.741Z,1.58
2022-09-15T13:41:24.634Z,1.08
2022-09-15T13:44:43.625Z,0.82
2022-09-15T13:47:38.916Z,0.80
2022-09-15T13:50:15.719Z,0.75
2022-09-15T13:52:55.512Z,0.90
2022-09-15T13:55:27.789Z,0.80
2022-09-15T14:00:55.456Z,0.88
2022-09-15T14:03:28.078Z,0.80
2022-09-15T14:05:57.115Z,1.00
2022-09-15T14:08:27.906Z,1.50
2022-09-15T14:10:59.640Z,1.70
2022-09-15T14:13:31.172Z,1.10
2022-09-15T14:16:03.998Z,1.50
2022-09-15T14:18:41.412Z,1.20
2022-09-15T14:21:17.254Z,1.15
2022-09-15T14:23:47.601Z,1.33
2022-09-15T14:26:16.927Z,1.38
2022-09-15T14:28:51.899Z,1.10
2022-09-15T14:31:28.580Z,1.05
2022-09-15T14:33:56.567Z,0.88
2022-09-15T14:36:28.299Z,1.00
2022-09-15T14:39:08.862Z,0.80
2022-09-15T14:41:37.460Z,1.00
2022-09-15T14:47:12.863Z,0.88
2022-09-15T14:49:40.533Z,0.80
2022-09-15T14:52:23.998Z,1.90
2022-09-15T14:54:56.391Z,0.93
2022-09-15T14:57:30.824Z,1.38
2022-09-15T15:00:04.006Z,0.80
2022-09-15T15:02:46.423Z,0.60
2022-09-15T15:05:18.622Z,0.70
2022-09-15T15:07:47.057Z,0.80
2022-09-15T15:10:20.652Z,0.60
2022-09-15T15:12:51.232Z,0.50
2022-09-15T15:15:20.711Z,0.70
2022-09-15T15:17:51.133Z,0.98
2022-09-15T15:20:22.816Z,0.57
2022-09-15T15:23:11.887Z,1.08
2022-09-15T15:25:39.972Z,0.80
2022-09-15T15:28:07.710Z,0.80
2022-09-15T15:30:47.731Z,0.73
2022-09-15T15:33:20.925Z,1.08
2022-09-15T15:36:02.402Z,1.10
2022-09-15T15:38:33.873Z,0.80
2022-09-15T15:41:03.677Z,1.10
2022-09-15T15:50:53.652Z,1.20
2022-09-15T15:53:19.914Z,1.30
2022-09-15T15:55:46.387Z,1.08
2022-09-15T15:58:13.649Z,1.25
2022-09-15T16:00:43.729Z,0.85
2022-09-15T16:03:10.453Z,1.00
2022-09-15T16:05:38.564Z,0.90
2022-09-15T16:08:09.520Z,1.00
2022-09-15T16:15:38.733Z,1.05
2022-09-15T16:18:05.074Z,1.10
2022-09-15T16:20:31.250Z,1.45
2022-09-15T16:22:57.699Z,1.25
2022-09-15T16:25:33.691Z,1.63
2022-09-15T16:28:00.156Z,1.38
2022-09-15T16:30:26.385Z,1.05
2022-09-15T16:40:53.037Z,1.30
2022-09-15T16:43:22.503Z,1.35
2022-09-15T16:45:49.933Z,1.30
2022-09-15T16:48:16.596Z,1.17
2022-09-15T16:51:01.676Z,1.40
2022-09-15T16:53:30.534Z,1.30
2022-09-15T16:55:57.417Z,1.27
2022-09-15T16:58:23.856Z,1.33
2022-09-15T17:05:53.930Z,1.50
2022-09-15T17:08:23.809Z,1.42
2022-09-15T17:10:52.759Z,1.70
2022-09-15T17:13:25.136Z,1.60
2022-09-15T17:15:55.792Z,1.75
2022-09-15T17:18:24.022Z,1.75
2022-09-15T17:20:51.954Z,2.10
2022-09-15T17:23:23.444Z,1.75
2022-09-15T17:25:53.035Z,2.08
2022-09-15T17:28:22.627Z,1.70
2022-09-15T17:30:51.489Z,2.00
2022-09-15T17:33:21.396Z,2.20
2022-09-15T17:35:49.452Z,2.30
2022-09-15T17:38:20.189Z,2.30
2022-09-15T17:40:50.544Z,2.50
2022-09-15T17:43:20.433Z,2.83
2022-09-15T17:45:49.118Z,2.58
2022-09-15T17:48:17.643Z,2.10
2022-09-15T17:50:46.201Z,2.45
2022-09-15T17:53:15.721Z,2.45
2022-09-15T17:55:43.567Z,2.40
2022-09-15T17:58:12.735Z,2.50
2022-09-15T18:00:42.769Z,2.42
2022-09-15T18:03:21.877Z,2.53
2022-09-15T18:05:49.859Z,2.15
2022-09-15T18:08:17.598Z,2.35
2022-09-15T18:10:45.802Z,3.05
2022-09-15T18:13:17.021Z,2.65
2022-09-15T18:15:45.299Z,2.10
2022-09-15T18:18:16.001Z,2.33
2022-09-15T18:20:44.184Z,2.20
2022-09-15T18:26:38.069Z,2.40
2022-09-15T18:29:04.265Z,3.00
2022-09-15T18:31:30.548Z,2.65
2022-09-15T18:33:56.804Z,2.45
2022-09-15T18:36:23.090Z,3.00
2022-09-15T18:38:49.329Z,2.50
2022-09-15T18:41:15.604Z,2.67
2022-09-15T18:47:18.695Z,2.57
2022-09-15T18:49:44.922Z,3.17
2022-09-15T18:52:12.517Z,2.80
2022-09-15T18:54:39.235Z,2.87
2022-09-15T18:57:05.853Z,2.77
2022-09-15T18:59:32.061Z,2.20
2022-09-15T19:01:58.371Z,2.70
2022-09-15T19:09:27.649Z,2.23
2022-09-15T19:11:53.920Z,2.43
2022-09-15T19:14:20.334Z,2.50
2022-09-15T19:16:57.753Z,2.63
2022-09-15T19:19:25.019Z,2.80
2022-09-15T19:21:51.319Z,2.60
2022-09-15T19:24:20.547Z,2.53
2022-09-15T19:26:47.894Z,2.50
2022-09-15T19:34:33.101Z,2.50
2022-09-15T19:36:59.814Z,2.60
2022-09-15T19:39:26.079Z,2.33
2022-09-15T19:41:52.472Z,3.03
2022-09-15T19:44:18.758Z,2.97
2022-09-15T19:46:45.186Z,3.20
2022-09-15T19:49:12.178Z,2.93
2022-09-15T19:56:32.214Z,2.77
2022-09-15T19:58:58.964Z,3.23
2022-09-15T20:01:27.473Z,3.10
2022-09-15T20:03:55.180Z,2.80
2022-09-15T20:06:22.611Z,2.93
2022-09-15T20:08:51.769Z,2.77
2022-09-15T20:11:18.590Z,3.27
2022-09-15T20:18:48.998Z,3.10
2022-09-15T20:21:27.108Z,2.93
2022-09-15T20:24:05.786Z,3.20
2022-09-15T20:26:32.086Z,2.77
2022-09-15T20:29:00.701Z,2.70
2022-09-15T20:31:27.427Z,3.00
2022-09-15T20:33:54.959Z,2.90
2022-09-15T20:42:41.883Z,3.17
2022-09-15T20:45:09.086Z,3.30
2022-09-15T20:47:35.498Z,2.93
2022-09-15T20:50:01.774Z,3.03
2022-09-15T20:52:33.532Z,3.13
2022-09-15T20:55:02.253Z,3.50
2022-09-15T20:57:28.504Z,3.33
2022-09-15T21:04:58.186Z,3.20
2022-09-15T21:07:24.374Z,2.90
2022-09-15T21:09:50.631Z,3.60
2022-09-15T21:12:16.825Z,3.43
2022-09-15T21:14:43.059Z,3.50
2022-09-15T21:17:09.344Z,3.30
2022-09-15T21:19:37.168Z,3.90
2022-09-15T21:24:45.856Z,3.27
2022-09-15T21:27:28.246Z,3.17
2022-09-15T21:29:54.471Z,3.87
2022-09-15T21:32:20.818Z,3.63
2022-09-15T21:34:47.370Z,4.00
2022-09-15T21:37:13.723Z,3.57
2022-09-15T21:39:40.330Z,3.70
2022-09-15T21:47:14.890Z,3.40
2022-09-15T21:49:42.463Z,3.50
2022-09-15T21:52:10.120Z,3.50
2022-09-15T21:54:38.435Z,3.70
2022-09-15T21:57:06.054Z,3.63
2022-09-15T21:59:33.648Z,3.50
2022-09-15T22:02:02.072Z,3.80
2022-09-15T22:04:31.195Z,3.57
2022-09-15T22:06:58.880Z,3.50
2022-09-15T22:09:26.488Z,3.93
2022-09-15T22:11:54.204Z,3.37
2022-09-15T22:14:22.400Z,3.37
2022-09-15T22:16:50.418Z,3.77
2022-09-15T22:19:18.074Z,3.50
2022-09-15T22:21:47.126Z,3.30
2022-09-15T22:24:14.952Z,3.53
2022-09-15T22:26:43.857Z,3.83
2022-09-15T22:29:11.876Z,3.17
2022-09-15T22:31:39.629Z,3.23
2022-09-15T22:34:07.909Z,4.23
2022-09-15T22:36:35.947Z,3.40
2022-09-15T22:39:06.171Z,3.73
2022-09-15T22:41:35.867Z,3.60
2022-09-15T22:44:04.624Z,3.67
2022-09-15T22:46:33.427Z,3.57
2022-09-15T22:49:01.346Z,4.07
2022-09-15T22:51:29.080Z,3.80
2022-09-15T22:53:58.587Z,3.50
2022-09-15T22:56:28.548Z,3.80
2022-09-15T22:58:57.381Z,3.30
2022-09-15T23:01:27.277Z,4.00
2022-09-15T23:03:56.095Z,3.70
2022-09-15T23:06:24.411Z,4.10
2022-09-15T23:08:52.788Z,4.23
2022-09-15T23:11:20.787Z,3.63
2022-09-15T23:13:49.998Z,3.63
2022-09-15T23:16:18.183Z,3.50
2022-09-15T23:18:46.327Z,4.00
2022-09-15T23:21:14.193Z,3.77
2022-09-15T23:23:45.298Z,3.47
2022-09-15T23:26:13.671Z,4.30
2022-09-15T23:28:41.408Z,4.30
2022-09-15T23:31:11.897Z,4.20
2022-09-15T23:33:39.877Z,3.53
2022-09-15T23:36:09.925Z,3.40
2022-09-15T23:38:38.502Z,4.33
2022-09-15T23:41:06.928Z,3.20
2022-09-15T23:43:35.197Z,4.20
2022-09-15T23:46:03.548Z,3.40
2022-09-15T23:48:32.800Z,3.77
2022-09-15T23:51:00.693Z,3.57
2022-09-15T23:53:29.318Z,3.33
2022-09-15T23:55:57.292Z,3.30
2022-09-15T23:58:25.094Z,3.37
